You are listening to:
KTPA Gnd/Twr/App - Tampa, Florida, United States

KTPA 251953Z 17010G17KT 10SM SCT065 BKN170 BKN250 34/17 A3002 RMK AO2 SLP165 T03440172

If stream doesn't start automatically press the play button
If stream stops then reload player then press play